Cluj-Napoca International Airport


Codes: LRCL/CLJ
Name: Cluj-Napoca International Airport
City: Cluj-Napoca
Country: Romania
Elevation: 1036 ft.
Website:
Wikipedia:

Photos at Cluj-Napoca International Airport


   Photos courtesy of SpottingLog. You can add your own sightings and photos by signing up for a free trial today.



No photos found.

Weather at Cluj-Napoca International Airport


Time (UTC)DescriptionTempratureWindCloud coverageVisibilityPressureHumidity
21-Jun-2024 12:00Clear Sky30°C2 mph, NE0%10000m1019hPa42%
21-Jun-2024 15:00Clear Sky30°C2 mph, NE7%10000m1018hPa45%
21-Jun-2024 18:00Clear Sky27°C2 mph, E7%10000m1016hPa60%
21-Jun-2024 21:00Clear Sky23°C2 mph, S0%10000m1014hPa73%
22-Jun-2024 00:00Clear Sky21°C4 mph, SE0%10000m1013hPa78%
22-Jun-2024 03:00Clear Sky20°C4 mph, SE0%10000m1012hPa83%
22-Jun-2024 06:00Clear Sky25°C4 mph, SE1%10000m1012hPa70%
22-Jun-2024 09:00Clear Sky30°C7 mph, SE10%10000m1011hPa58%
22-Jun-2024 12:00Clear Sky33°C4 mph, SE9%10000m1009hPa46%
22-Jun-2024 15:00Light Rain28°C4 mph, N47%10000m1008hPa69%
22-Jun-2024 18:00Moderate Rain19°C20 mph, N47%794m1011hPa95%
22-Jun-2024 21:00Heavy Intensity Rain18°C9 mph, E100%10000m1013hPa95%
23-Jun-2024 00:00Overcast Clouds17°C7 mph, SE100%10000m1011hPa95%
23-Jun-2024 03:00Overcast Clouds17°C4 mph, S94%10000m1011hPa96%
23-Jun-2024 06:00Scattered Clouds21°C2 mph, NE49%10000m1011hPa84%
23-Jun-2024 09:00Clear Sky25°C4 mph, N10%10000m1011hPa69%
23-Jun-2024 12:00Clear Sky28°C4 mph, N5%10000m1011hPa61%
23-Jun-2024 15:00Few Clouds28°C7 mph, N19%10000m1010hPa65%
23-Jun-2024 18:00Few Clouds24°C4 mph, NW13%10000m1011hPa83%
23-Jun-2024 21:00Light Rain21°C4 mph, NW40%10000m1012hPa92%
24-Jun-2024 00:00Moderate Rain19°C4 mph, NW70%10000m1012hPa95%
24-Jun-2024 03:00Moderate Rain19°C2 mph, W100%10000m1012hPa96%
24-Jun-2024 06:00Light Rain21°C2 mph, NE100%10000m1013hPa92%
24-Jun-2024 09:00Light Rain24°C0 mph, NW100%10000m1013hPa77%
24-Jun-2024 12:00Overcast Clouds26°C7 mph, NW100%10000m1012hPa68%
24-Jun-2024 15:00Light Rain25°C11 mph, NW98%10000m1013hPa72%
24-Jun-2024 18:00Broken Clouds22°C9 mph, NW70%10000m1013hPa84%
24-Jun-2024 21:00Scattered Clouds18°C4 mph, W36%10000m1014hPa82%
25-Jun-2024 00:00Few Clouds17°C2 mph, NW18%10000m1014hPa81%
25-Jun-2024 03:00Clear Sky16°C2 mph, NW3%10000m1014hPa86%
25-Jun-2024 06:00Clear Sky21°C2 mph, NW3%10000m1014hPa75%
25-Jun-2024 09:00Clear Sky25°C4 mph, SE7%10000m1013hPa66%
25-Jun-2024 12:00Light Rain28°C2 mph, N11%10000m1012hPa60%
25-Jun-2024 15:00Moderate Rain27°C2 mph, N56%10000m1011hPa64%
25-Jun-2024 18:00Light Rain23°C2 mph, NE67%10000m1011hPa78%
25-Jun-2024 21:00Scattered Clouds21°C0 mph, NE47%10000m1011hPa86%
26-Jun-2024 00:00Light Rain19°C2 mph, SE63%10000m1010hPa89%
26-Jun-2024 03:00Light Rain18°C4 mph, E100%10000m1011hPa95%
26-Jun-2024 06:00Light Rain21°C9 mph, SE100%10000m1011hPa87%
26-Jun-2024 09:00Light Rain25°C7 mph, SE100%10000m1009hPa71%